Time;durP1;ratioP1;P1;durP2;ratioP2;P2;SDS_P1;SDS_P2;PMS_P1;PMS_P2;Temp;Humidity;BMP_temperature;BMP_pressure;BME280_temperature;BME280_humidity;BME280_pressure;Samples;Min_cycle;Max_cycle;Signal;HPM_P1;HPM_P2
2023/06/25 00:00:18;;;;;;;7.57;5.53;;;15.50;99.90;;;;;;10368713;28;20239;-89
2023/06/25 00:05:21;;;;;;;7.03;5.75;;;15.20;99.90;;;;;;10355482;28;20260;-89
2023/06/25 00:10:23;;;;;;;5.40;4.82;;;15.20;99.90;;;;;;10343680;28;20719;-89
2023/06/25 00:15:27;;;;;;;8.55;5.95;;;15.40;99.90;;;;;;10328942;28;20256;-90
2023/06/25 00:20:30;;;;;;;6.07;5.30;;;15.20;99.90;;;;;;10328167;28;20669;-89
2023/06/25 00:25:32;;;;;;;8.68;5.43;;;15.10;99.90;;;;;;10328303;28;20244;-89
2023/06/25 00:30:35;;;;;;;10.20;5.68;;;15.00;99.90;;;;;;10327672;28;20241;-89
2023/06/25 00:36:02;;;;;;;14.23;6.60;;;14.80;99.90;;;;;;10328046;28;20268;-89
2023/06/25 00:41:11;;;;;;;8.98;6.55;;;14.90;99.90;;;;;;10320503;28;20244;-90
2023/06/25 00:46:15;;;;;;;8.13;5.28;;;14.70;99.90;;;;;;10325911;28;20244;-89
2023/06/25 00:51:26;;;;;;;10.57;5.93;;;14.50;99.90;;;;;;10325672;28;20244;-90
2023/06/25 00:56:29;;;;;;;7.13;5.47;;;14.50;99.90;;;;;;10362924;28;20824;-89
2023/06/25 01:01:45;;;;;;;10.20;6.75;;;14.40;99.90;;;;;;10348934;28;20237;-89
2023/06/25 01:06:51;;;;;;;9.43;7.07;;;14.30;99.90;;;;;;10327460;28;20295;-89
2023/06/25 01:12:04;;;;;;;8.13;6.72;;;14.20;99.90;;;;;;10325538;28;20268;-89
2023/06/25 01:17:09;;;;;;;9.05;6.45;;;14.20;99.90;;;;;;10326580;28;20256;-89
2023/06/25 01:22:14;;;;;;;6.68;5.90;;;14.20;99.90;;;;;;10326802;28;20229;-88
2023/06/25 01:27:17;;;;;;;7.50;6.00;;;14.00;99.90;;;;;;10334388;28;20233;-89
2023/06/25 01:32:19;;;;;;;8.23;5.63;;;13.90;99.90;;;;;;10326228;28;20244;-90
2023/06/25 01:37:22;;;;;;;6.80;6.13;;;13.80;99.90;;;;;;10332297;28;20729;-89
2023/06/25 01:42:25;;;;;;;7.55;5.63;;;13.60;99.90;;;;;;10354827;28;20267;-88
2023/06/25 01:47:27;;;;;;;6.82;5.75;;;13.60;99.90;;;;;;10343216;28;20292;-88
2023/06/25 01:52:31;;;;;;;9.45;5.82;;;13.60;99.90;;;;;;10326123;28;20224;-89
2023/06/25 01:57:36;;;;;;;7.53;5.75;;;13.70;99.90;;;;;;10324490;28;20248;-89
2023/06/25 02:02:38;;;;;;;7.28;5.22;;;13.70;99.90;;;;;;10325094;28;20241;-89
2023/06/25 02:07:41;;;;;;;5.95;5.13;;;13.60;99.90;;;;;;10330610;28;20217;-89
2023/06/25 02:12:43;;;;;;;11.13;6.10;;;13.70;99.90;;;;;;10333146;28;20659;-89
2023/06/25 02:17:46;;;;;;;6.55;5.28;;;14.00;99.90;;;;;;10322961;28;20716;-89
2023/06/25 02:22:50;;;;;;;5.85;5.22;;;13.70;99.90;;;;;;10292568;28;20272;-89
2023/06/25 02:27:52;;;;;;;7.10;5.85;;;13.60;99.90;;;;;;10347199;28;20584;-90
2023/06/25 02:32:55;;;;;;;6.50;5.30;;;13.60;99.90;;;;;;10342406;28;20260;-89
2023/06/25 02:37:57;;;;;;;5.45;4.95;;;13.50;99.90;;;;;;10331863;28;20256;-89
2023/06/25 02:43:00;;;;;;;9.15;5.32;;;13.50;99.90;;;;;;10333160;28;20240;-89
2023/06/25 02:48:03;;;;;;;11.02;6.18;;;13.40;99.90;;;;;;10332192;28;20256;-89
2023/06/25 02:53:05;;;;;;;6.93;6.10;;;13.40;99.90;;;;;;10314588;28;20244;-89
2023/06/25 02:58:10;;;;;;;9.23;6.03;;;13.70;99.90;;;;;;10330623;28;20268;-89
2023/06/25 03:03:13;;;;;;;6.60;5.57;;;13.70;99.90;;;;;;10344769;28;20275;-89
2023/06/25 03:08:16;;;;;;;7.07;5.88;;;13.60;99.90;;;;;;10307099;28;20272;-89
2023/06/25 03:13:18;;;;;;;9.52;5.32;;;13.50;99.90;;;;;;10310547;28;20256;-89
2023/06/25 03:18:21;;;;;;;6.88;5.60;;;13.70;99.90;;;;;;10328932;28;20260;-89
2023/06/25 03:23:24;;;;;;;7.25;5.30;;;13.70;99.90;;;;;;10328992;28;20260;-89
2023/06/25 03:28:27;;;;;;;5.88;5.25;;;13.70;99.90;;;;;;10329000;28;20232;-90
2023/06/25 03:33:29;;;;;;;6.50;5.90;;;13.80;99.90;;;;;;10328872;28;20244;-89
2023/06/25 03:38:32;;;;;;;7.43;5.28;;;13.90;99.90;;;;;;10335543;28;20275;-89
2023/06/25 03:43:34;;;;;;;6.05;5.40;;;14.00;99.90;;;;;;10327817;28;20245;-90
2023/06/25 03:48:40;;;;;;;7.22;6.05;;;14.10;99.90;;;;;;10328502;28;20322;-90
2023/06/25 03:53:43;;;;;;;6.32;5.13;;;14.10;99.90;;;;;;10311210;28;20754;-90
2023/06/25 03:58:45;;;;;;;9.77;6.03;;;14.30;99.90;;;;;;10324246;28;20264;-90
2023/06/25 04:03:48;;;;;;;6.45;5.05;;;14.30;99.90;;;;;;10329721;28;20634;-90
2023/06/25 04:08:51;;;;;;;8.85;6.43;;;14.50;99.90;;;;;;10328931;28;20609;-90
2023/06/25 04:13:54;;;;;;;7.43;4.93;;;14.70;99.90;;;;;;10346729;28;20280;-90
2023/06/25 04:18:57;;;;;;;7.72;5.68;;;15.20;99.90;;;;;;10342256;28;20256;-90
2023/06/25 04:24:00;;;;;;;8.25;5.45;;;15.50;99.90;;;;;;10323325;28;20701;-91
2023/06/25 04:29:04;;;;;;;4.40;3.95;;;15.60;99.90;;;;;;10323961;28;20232;-90
2023/06/25 04:34:08;;;;;;;4.85;4.32;;;15.70;99.90;;;;;;10326271;28;20237;-89
2023/06/25 04:39:13;;;;;;;5.57;4.80;;;16.00;99.90;;;;;;10325905;28;20310;-91
2023/06/25 04:44:15;;;;;;;6.13;5.32;;;16.30;99.90;;;;;;10333775;28;20232;-91
2023/06/25 04:49:18;;;;;;;4.20;3.80;;;16.60;99.90;;;;;;10333805;28;20808;-91
2023/06/25 04:54:21;;;;;;;3.97;3.63;;;16.90;99.90;;;;;;10310489;28;20299;-91
2023/06/25 04:59:23;;;;;;;4.57;4.18;;;17.10;99.90;;;;;;10355821;28;20314;-91
2023/06/25 05:04:26;;;;;;;4.10;3.70;;;17.30;99.90;;;;;;10368272;28;20240;-90
2023/06/25 05:09:28;;;;;;;4.47;3.80;;;17.50;99.90;;;;;;10326009;28;20271;-91
2023/06/25 05:14:31;;;;;;;5.63;4.15;;;17.60;99.90;;;;;;10331434;28;20267;-90
2023/06/25 05:19:33;;;;;;;4.50;3.83;;;17.90;99.90;;;;;;10333526;28;20326;-91
2023/06/25 05:24:36;;;;;;;4.15;3.70;;;18.00;99.90;;;;;;10326623;28;20225;-91
2023/06/25 05:29:39;;;;;;;4.07;3.67;;;18.10;99.90;;;;;;10325128;28;20236;-91
2023/06/25 05:34:41;;;;;;;5.25;3.78;;;18.20;97.80;;;;;;10327620;28;20245;-91
2023/06/25 05:39:44;;;;;;;3.70;3.40;;;18.40;99.20;;;;;;10324869;28;20800;-89
2023/06/25 05:44:46;;;;;;;5.55;4.25;;;18.70;99.90;;;;;;10324101;28;20240;-89
2023/06/25 05:49:49;;;;;;;3.75;3.45;;;18.80;95.80;;;;;;10342457;28;20299;-89
2023/06/25 05:54:52;;;;;;;3.60;3.22;;;19.00;92.80;;;;;;10335185;28;20371;-89
2023/06/25 05:59:54;;;;;;;4.15;3.65;;;19.00;91.70;;;;;;10324398;28;20626;-88
2023/06/25 06:04:57;;;;;;;4.80;2.97;;;19.30;93.30;;;;;;10337921;28;20237;-89
2023/06/25 06:10:00;;;;;;;7.03;4.00;;;19.40;93.80;;;;;;10325406;28;20291;-88
2023/06/25 06:15:03;;;;;;;4.20;3.40;;;19.50;91.00;;;;;;10324961;28;20273;-89
2023/06/25 06:20:06;;;;;;;3.78;3.47;;;19.60;90.50;;;;;;10347812;28;20267;-89
2023/06/25 06:25:08;;;;;;;3.38;3.08;;;19.80;93.20;;;;;;10338460;28;20237;-89
2023/06/25 06:30:12;;;;;;;4.32;3.17;;;20.00;93.60;;;;;;10323754;28;20280;-89
2023/06/25 06:35:14;;;;;;;4.00;3.47;;;20.20;89.10;;;;;;10324435;28;20684;-89
2023/06/25 06:40:17;;;;;;;3.08;2.88;;;20.20;91.60;;;;;;10324798;28;20244;-88
2023/06/25 06:45:22;;;;;;;5.13;3.38;;;20.40;92.50;;;;;;10325049;28;20296;-88
2023/06/25 06:50:25;;;;;;;4.25;3.85;;;20.60;92.40;;;;;;10325207;28;20236;-90
2023/06/25 06:55:28;;;;;;;4.18;3.67;;;20.70;90.50;;;;;;10330658;28;20696;-89
2023/06/25 07:00:33;;;;;;;4.20;3.53;;;20.90;91.00;;;;;;10328380;28;20645;-90
2023/06/25 07:05:36;;;;;;;3.63;3.30;;;21.00;88.80;;;;;;10331367;28;20688;-89
2023/06/25 07:10:39;;;;;;;5.22;3.60;;;21.10;83.20;;;;;;10329412;28;20232;-89
2023/06/25 07:15:41;;;;;;;4.05;3.65;;;21.20;85.90;;;;;;10334359;28;20315;-89
2023/06/25 07:20:44;;;;;;;4.13;3.75;;;21.30;87.50;;;;;;10331176;28;20708;-88
2023/06/25 07:25:47;;;;;;;4.32;3.92;;;21.40;90.80;;;;;;10331188;28;20640;-87
2023/06/25 07:30:49;;;;;;;6.25;3.97;;;21.80;89.80;;;;;;10330446;28;20298;-88
2023/06/25 07:35:52;;;;;;;4.15;3.60;;;21.90;79.00;;;;;;10332030;28;20240;-88
2023/06/25 07:40:55;;;;;;;4.35;3.20;;;21.90;76.90;;;;;;10346421;28;20646;-88
2023/06/25 07:45:57;;;;;;;4.00;3.60;;;22.00;72.00;;;;;;10328663;28;20310;-87
2023/06/25 07:51:00;;;;;;;4.82;3.72;;;22.20;73.70;;;;;;10330005;28;20244;-87
2023/06/25 07:56:02;;;;;;;5.93;3.53;;;22.40;85.50;;;;;;10328579;28;20619;-88
2023/06/25 08:01:06;;;;;;;4.35;3.92;;;22.70;72.20;;;;;;10328656;28;20760;-89
2023/06/25 08:06:08;;;;;;;4.65;3.75;;;23.00;78.80;;;;;;10328714;28;20275;-88
2023/06/25 08:11:11;;;;;;;3.55;3.25;;;23.00;70.60;;;;;;10334109;28;20243;-88
2023/06/25 08:16:13;;;;;;;4.18;3.08;;;22.90;61.20;;;;;;10346552;28;20276;-91
2023/06/25 08:21:16;;;;;;;4.60;3.80;;;22.90;58.30;;;;;;10350643;28;20248;-91
2023/06/25 08:26:18;;;;;;;5.35;2.95;;;23.00;62.20;;;;;;10365031;28;20676;-92
2023/06/25 08:31:21;;;;;;;3.97;3.67;;;23.00;49.70;;;;;;10325977;28;20233;-90
2023/06/25 08:36:24;;;;;;;3.70;3.40;;;23.20;54.40;;;;;;10354524;28;20738;-90
2023/06/25 08:41:28;;;;;;;3.97;3.45;;;22.90;58.70;;;;;;10349767;28;20653;-90
2023/06/25 08:46:32;;;;;;;5.10;3.00;;;23.20;66.30;;;;;;10336249;28;20217;-90
2023/06/25 08:51:36;;;;;;;4.32;2.70;;;23.40;60.90;;;;;;10328473;28;20588;-89
2023/06/25 08:56:39;;;;;;;4.10;3.70;;;23.50;46.50;;;;;;10325938;28;20256;-89
2023/06/25 09:01:42;;;;;;;3.88;3.25;;;23.50;54.20;;;;;;10341160;28;20205;-89
2023/06/25 09:06:46;;;;;;;5.25;3.72;;;;;;;;;;10310482;28;20264;-90
2023/06/25 09:12:06;;;;;;;3.25;2.95;;;24.10;69.70;;;;;;10323668;28;20304;-90
2023/06/25 09:17:09;;;;;;;4.18;2.90;;;24.00;46.80;;;;;;10325510;28;20260;-90
2023/06/25 09:22:12;;;;;;;2.80;2.60;;;23.90;35.80;;;;;;10360172;28;20641;-90
2023/06/25 09:27:14;;;;;;;4.00;3.58;;;23.90;41.70;;;;;;10324889;28;20240;-90
2023/06/25 09:32:17;;;;;;;3.55;3.25;;;24.20;45.70;;;;;;10324963;28;20316;-90
2023/06/25 09:37:20;;;;;;;4.95;3.53;;;24.20;41.80;;;;;;10325665;28;20291;-91
2023/06/25 09:42:23;;;;;;;3.85;3.50;;;24.30;55.30;;;;;;10323521;28;20306;-91
2023/06/25 09:47:25;;;;;;;3.90;3.50;;;24.40;52.20;;;;;;10323319;28;20237;-90
2023/06/25 09:52:28;;;;;;;3.80;3.22;;;24.60;49.80;;;;;;10323329;28;20248;-90
2023/06/25 09:57:31;;;;;;;4.28;3.33;;;24.40;41.60;;;;;;10326355;28;20260;-89
2023/06/25 10:02:34;;;;;;;3.70;3.25;;;24.40;37.00;;;;;;10324472;28;20627;-90
2023/06/25 10:07:37;;;;;;;4.43;4.03;;;24.30;43.70;;;;;;10325982;28;20249;-90
2023/06/25 10:12:41;;;;;;;3.42;3.13;;;24.70;48.90;;;;;;10301877;28;20269;-90
2023/06/25 10:17:50;;;;;;;3.50;3.20;;;24.70;32.90;;;;;;9970672;28;9999696;-89
2023/06/25 10:23:09;;;;;;;3.90;3.33;;;24.80;34.70;;;;;;10320954;28;20288;-89
2023/06/25 10:28:15;;;;;;;3.80;3.40;;;24.90;33.90;;;;;;10336687;28;20244;-90
2023/06/25 10:33:19;;;;;;;5.35;3.10;;;25.10;38.20;;;;;;10300476;28;20240;-89
2023/06/25 10:38:23;;;;;;;5.95;3.45;;;25.20;33.80;;;;;;10327448;28;20256;-90
2023/06/25 10:43:25;;;;;;;3.67;3.33;;;24.70;34.30;;;;;;10327008;28;20307;-90
2023/06/25 10:48:28;;;;;;;3.33;3.03;;;24.90;34.70;;;;;;10329150;28;20296;-91
2023/06/25 10:53:31;;;;;;;4.38;3.97;;;25.10;37.60;;;;;;10328113;28;20750;-90
2023/06/25 10:58:33;;;;;;;4.25;3.83;;;25.40;35.30;;;;;;10327557;28;20325;-91
2023/06/25 11:03:37;;;;;;;5.13;4.00;;;25.50;36.50;;;;;;10327736;28;20711;-90
2023/06/25 11:08:43;;;;;;;5.30;3.53;;;25.60;35.50;;;;;;10328162;28;20298;-91
2023/06/25 11:13:49;;;;;;;6.18;4.13;;;25.70;35.10;;;;;;10328211;28;20291;-90
2023/06/25 11:18:52;;;;;;;4.28;3.67;;;25.70;32.20;;;;;;10325838;28;20726;-91
2023/06/25 11:23:54;;;;;;;5.22;4.72;;;25.20;34.40;;;;;;10328070;28;20240;-90
2023/06/25 11:29:05;;;;;;;6.03;4.38;;;24.70;38.60;;;;;;10327114;28;20703;-90
2023/06/25 11:34:19;;;;;;;4.15;3.75;;;24.90;35.80;;;;;;10327318;28;20252;-90
2023/06/25 11:39:22;;;;;;;5.63;5.10;;;25.10;35.00;;;;;;10325682;28;20314;-91
2023/06/25 11:44:24;;;;;;;5.13;4.07;;;25.30;35.00;;;;;;10326518;28;20644;-90
2023/06/25 11:49:27;;;;;;;4.68;4.15;;;25.30;32.20;;;;;;10324383;28;20244;-90
2023/06/25 11:54:30;;;;;;;3.40;3.10;;;25.50;35.90;;;;;;10326173;28;20240;-89
2023/06/25 11:59:32;;;;;;;4.03;3.60;;;25.60;30.00;;;;;;10325074;28;20260;-89
2023/06/25 12:04:35;;;;;;;4.78;3.70;;;25.70;23.40;;;;;;10326622;28;20656;-90
2023/06/25 12:09:38;;;;;;;4.63;4.22;;;25.70;28.50;;;;;;10327168;28;20241;-88
2023/06/25 12:14:41;;;;;;;4.35;3.95;;;25.50;28.50;;;;;;10328878;28;20725;-90
2023/06/25 12:19:43;;;;;;;4.47;3.78;;;25.30;27.60;;;;;;10322953;28;20654;-91
2023/06/25 12:24:46;;;;;;;4.80;3.95;;;25.40;28.90;;;;;;10327177;28;20712;-90
2023/06/25 12:29:48;;;;;;;4.18;3.78;;;25.60;28.30;;;;;;10326678;28;20643;-90
2023/06/25 12:34:51;;;;;;;4.70;3.97;;;25.80;27.70;;;;;;10329448;28;20310;-90
2023/06/25 12:39:54;;;;;;;5.07;3.47;;;26.00;27.40;;;;;;10328247;28;20264;-90
2023/06/25 12:44:57;;;;;;;5.90;2.95;;;26.10;22.60;;;;;;10327666;28;20252;-90
2023/06/25 12:49:59;;;;;;;7.20;3.63;;;26.00;23.40;;;;;;10325530;28;20267;-89
2023/06/25 12:55:05;;;;;;;5.47;3.17;;;25.80;20.50;;;;;;10324769;28;20303;-90
2023/06/25 13:00:08;;;;;;;4.43;3.53;;;25.70;24.50;;;;;;10327542;28;20260;-89
2023/06/25 13:05:22;;;;;;;3.58;3.28;;;25.70;22.60;;;;;;10325916;28;20985;-90
2023/06/25 13:10:24;;;;;;;6.90;3.42;;;25.60;23.10;;;;;;10326548;28;20594;-90
2023/06/25 13:15:27;;;;;;;5.30;3.42;;;25.40;23.30;;;;;;10350702;28;20630;-89
2023/06/25 13:20:30;;;;;;;3.33;2.92;;;25.60;22.70;;;;;;10334197;28;20256;-90
2023/06/25 13:25:37;;;;;;;4.35;3.80;;;25.80;23.00;;;;;;10326428;28;20328;-90
2023/06/25 13:30:40;;;;;;;4.20;3.80;;;25.90;22.80;;;;;;10341597;28;20319;-89
2023/06/25 13:35:42;;;;;;;5.15;3.45;;;25.90;26.40;;;;;;10339287;28;20683;-91
2023/06/25 13:40:47;;;;;;;3.88;3.47;;;26.10;22.60;;;;;;10345770;28;20342;-90
2023/06/25 13:45:49;;;;;;;3.65;3.30;;;26.20;17.80;;;;;;10351641;28;20244;-91
2023/06/25 13:50:52;;;;;;;4.47;3.78;;;26.40;22.20;;;;;;10325392;28;20244;-90
2023/06/25 13:55:56;;;;;;;5.90;4.10;;;26.50;23.10;;;;;;10325889;28;20291;-91
2023/06/25 14:00:59;;;;;;;3.75;3.33;;;26.80;23.50;;;;;;10333427;28;20282;-91
2023/06/25 14:06:01;;;;;;;3.92;3.53;;;26.90;22.50;;;;;;10331823;28;20236;-91
2023/06/25 14:11:04;;;;;;;3.42;3.13;;;26.60;19.90;;;;;;10344591;28;20303;-90
2023/06/25 14:16:07;;;;;;;4.65;3.67;;;26.50;21.70;;;;;;10327240;28;20276;-90
2023/06/25 14:21:17;;;;;;;5.07;3.33;;;26.50;23.40;;;;;;10340707;28;20263;-90
2023/06/25 14:26:21;;;;;;;4.40;3.80;;;26.50;24.10;;;;;;10351369;28;20236;-89
2023/06/25 14:31:24;;;;;;;3.90;3.20;;;26.30;20.60;;;;;;10359477;28;20248;-89
2023/06/25 14:36:27;;;;;;;5.32;3.50;;;26.40;24.20;;;;;;10343571;28;20310;-89
2023/06/25 14:41:29;;;;;;;3.88;3.08;;;26.50;18.80;;;;;;10343870;28;20260;-90
2023/06/25 14:46:32;;;;;;;3.50;3.20;;;26.50;21.00;;;;;;10336489;28;20244;-89
2023/06/25 14:51:35;;;;;;;3.63;3.33;;;26.30;22.20;;;;;;10330511;28;20307;-89
2023/06/25 14:56:39;;;;;;;3.95;3.47;;;26.40;23.70;;;;;;10349506;28;20695;-89
2023/06/25 15:01:42;;;;;;;5.38;3.47;;;26.30;21.70;;;;;;10342527;28;20287;-90
2023/06/25 15:06:44;;;;;;;4.18;3.78;;;26.30;25.00;;;;;;10343018;28;20244;-89
2023/06/25 15:11:48;;;;;;;4.13;3.70;;;26.30;22.80;;;;;;10364206;28;20271;-90
2023/06/25 15:16:50;;;;;;;4.40;3.50;;;26.00;23.90;;;;;;10346746;28;20280;-90
2023/06/25 15:21:53;;;;;;;6.13;3.40;;;25.90;21.40;;;;;;10329625;28;20315;-88
2023/06/25 15:26:55;;;;;;;4.15;3.63;;;26.00;22.00;;;;;;10331652;28;20311;-89
2023/06/25 15:32:01;;;;;;;3.75;3.38;;;26.10;20.60;;;;;;10328841;28;20228;-90
2023/06/25 15:37:04;;;;;;;3.80;3.50;;;26.20;22.90;;;;;;10329140;28;20244;-89
2023/06/25 15:42:07;;;;;;;3.47;3.17;;;26.40;22.80;;;;;;10345040;28;20260;-90
2023/06/25 15:47:09;;;;;;;5.80;3.97;;;26.40;25.30;;;;;;10325982;28;20299;-89
2023/06/25 15:52:15;;;;;;;3.72;3.42;;;26.50;21.90;;;;;;10325590;28;20237;-90
2023/06/25 15:57:18;;;;;;;7.32;4.50;;;26.20;21.20;;;;;;10328430;28;20758;-89
2023/06/25 16:02:20;;;;;;;7.03;3.83;;;26.00;20.90;;;;;;10305842;28;20260;-90
2023/06/25 16:07:23;;;;;;;4.88;3.38;;;26.10;24.60;;;;;;10312497;28;20299;-90
2023/06/25 16:12:26;;;;;;;5.07;3.60;;;26.00;21.50;;;;;;10328694;28;20271;-90
2023/06/25 16:17:28;;;;;;;4.45;4.05;;;25.90;23.50;;;;;;10329530;28;20249;-89
2023/06/25 16:22:31;;;;;;;7.90;4.38;;;25.80;25.90;;;;;;10328952;28;20295;-90
2023/06/25 16:27:34;;;;;;;3.80;3.05;;;26.00;24.40;;;;;;10347343;28;20228;-89
2023/06/25 16:32:36;;;;;;;3.58;3.28;;;26.10;27.10;;;;;;10329444;28;20240;-89
2023/06/25 16:37:39;;;;;;;6.10;3.97;;;26.30;26.10;;;;;;10326721;28;20360;-89
2023/06/25 16:42:41;;;;;;;3.60;3.28;;;26.50;25.10;;;;;;10328127;28;20272;-89
2023/06/25 16:47:44;;;;;;;3.85;3.47;;;26.60;26.80;;;;;;10327979;28;20240;-89
2023/06/25 16:52:47;;;;;;;3.60;3.05;;;26.60;27.00;;;;;;10329136;28;20327;-90
2023/06/25 16:57:50;;;;;;;3.75;3.45;;;26.60;28.90;;;;;;10326141;28;20244;-90
2023/06/25 17:02:52;;;;;;;3.63;3.33;;;26.60;29.00;;;;;;10325055;28;20310;-89
2023/06/25 17:07:55;;;;;;;3.90;3.50;;;26.60;25.00;;;;;;10325944;28;20229;-89
2023/06/25 17:12:59;;;;;;;3.72;3.42;;;26.60;25.20;;;;;;10323524;28;20264;-90
2023/06/25 17:18:02;;;;;;;6.72;3.85;;;26.50;24.20;;;;;;10324134;28;20236;-91
2023/06/25 17:23:04;;;;;;;3.08;2.83;;;26.50;23.80;;;;;;10342331;28;20282;-90
2023/06/25 17:28:07;;;;;;;3.40;3.10;;;26.40;26.00;;;;;;10337214;28;20229;-90
2023/06/25 17:33:11;;;;;;;5.20;4.10;;;26.30;26.50;;;;;;10341535;28;20920;-89
2023/06/25 17:38:13;;;;;;;5.82;3.50;;;26.20;24.90;;;;;;10365984;28;20310;-89
2023/06/25 17:43:19;;;;;;;5.05;3.78;;;26.20;24.50;;;;;;10326954;28;20240;-89
2023/06/25 17:48:22;;;;;;;4.93;3.97;;;26.10;23.40;;;;;;10376566;28;20654;-89
2023/06/25 17:53:26;;;;;;;4.70;4.20;;;26.10;23.50;;;;;;10328540;28;20213;-90
2023/06/25 17:58:29;;;;;;;6.13;3.83;;;26.00;25.80;;;;;;10336347;28;20290;-87
2023/06/25 18:03:32;;;;;;;4.30;3.90;;;25.80;28.40;;;;;;10356653;28;20298;-89
2023/06/25 18:08:35;;;;;;;7.00;4.30;;;25.40;31.30;;;;;;10333315;28;20240;-89
2023/06/25 18:13:38;;;;;;;5.63;4.55;;;25.00;32.40;;;;;;10325485;28;20953;-89
2023/06/25 18:18:44;;;;;;;6.35;4.10;;;24.60;31.10;;;;;;10324581;28;20268;-89
2023/06/25 18:23:47;;;;;;;5.65;3.90;;;24.20;36.80;;;;;;10307779;28;20240;-89
2023/06/25 18:28:50;;;;;;;4.80;4.07;;;24.00;41.20;;;;;;10307527;28;20240;-89
2023/06/25 18:33:52;;;;;;;5.45;4.60;;;23.70;47.00;;;;;;10325444;28;20278;-89
2023/06/25 18:38:55;;;;;;;6.97;4.55;;;23.60;44.50;;;;;;10324381;28;20257;-88
2023/06/25 18:43:57;;;;;;;9.07;5.20;;;23.20;54.70;;;;;;10323820;28;20241;-88
2023/06/25 18:49:00;;;;;;;9.85;5.07;;;22.80;57.10;;;;;;10329677;28;20298;-88
2023/06/25 18:54:02;;;;;;;5.55;4.13;;;22.60;63.00;;;;;;10330680;28;20240;-88
2023/06/25 18:59:05;;;;;;;5.18;4.10;;;22.30;67.40;;;;;;10332971;28;20268;-88
2023/06/25 19:04:08;;;;;;;5.15;4.22;;;22.20;71.00;;;;;;9984660;28;9999797;-88
2023/06/25 19:09:11;;;;;;;10.18;4.38;;;21.90;73.00;;;;;;10329243;28;20248;-88
2023/06/25 19:14:14;;;;;;;12.88;4.82;;;21.70;77.50;;;;;;10311617;28;20276;-87
2023/06/25 19:19:16;;;;;;;5.13;4.63;;;21.50;84.10;;;;;;10320076;28;20325;-88
2023/06/25 19:24:19;;;;;;;11.60;4.88;;;21.30;85.50;;;;;;10329793;28;20245;-88
2023/06/25 19:29:21;;;;;;;8.38;4.82;;;21.30;88.10;;;;;;10342292;28;20262;-88
2023/06/25 19:34:24;;;;;;;11.07;5.97;;;21.20;91.30;;;;;;10327536;28;20244;-88
2023/06/25 19:39:26;;;;;;;8.23;4.82;;;21.10;93.40;;;;;;10326881;28;20295;-88
2023/06/25 19:44:29;;;;;;;7.68;4.57;;;20.90;94.40;;;;;;10337369;28;20239;-88
2023/06/25 19:49:32;;;;;;;8.23;5.03;;;20.60;94.90;;;;;;10327796;28;20245;-88
2023/06/25 19:54:34;;;;;;;9.07;5.35;;;20.40;96.00;;;;;;10329258;28;20946;-88
2023/06/25 19:59:37;;;;;;;6.82;5.20;;;20.20;96.80;;;;;;10329792;28;20326;-88
2023/06/25 20:04:39;;;;;;;7.10;4.93;;;20.10;97.10;;;;;;10328702;28;20253;-88
2023/06/25 20:09:42;;;;;;;9.90;4.53;;;20.10;97.40;;;;;;10377466;28;20243;-88
2023/06/25 20:14:45;;;;;;;7.80;5.15;;;20.00;98.00;;;;;;10339727;28;20303;-88
2023/06/25 20:19:47;;;;;;;8.18;5.10;;;19.80;99.10;;;;;;10324336;28;20747;-88
2023/06/25 20:24:50;;;;;;;8.50;5.60;;;19.70;98.70;;;;;;10324662;28;20249;-87
2023/06/25 20:29:52;;;;;;;10.10;4.82;;;19.50;99.90;;;;;;10321968;28;20213;-87
2023/06/25 20:35:00;;;;;;;6.72;3.92;;;19.30;99.90;;;;;;10329541;28;20212;-87
2023/06/25 20:40:03;;;;;;;13.02;5.35;;;19.30;99.90;;;;;;10343153;28;20799;-87
2023/06/25 20:45:06;;;;;;;9.00;5.28;;;19.20;99.90;;;;;;10311213;28;20676;-88
2023/06/25 20:50:09;;;;;;;7.53;5.32;;;19.00;99.90;;;;;;10332645;28;20248;-89
2023/06/25 20:55:12;;;;;;;11.45;5.20;;;;;;;;;;10310817;28;20271;-88
2023/06/25 21:00:15;;;;;;;9.35;4.95;;;18.70;99.90;;;;;;10327495;28;20261;-87
2023/06/25 21:05:18;;;;;;;8.07;4.70;;;19.00;99.90;;;;;;10327787;28;20295;-87
2023/06/25 21:10:20;;;;;;;12.77;5.20;;;18.80;99.90;;;;;;10328430;28;20240;-87
2023/06/25 21:15:30;;;;;;;13.48;6.47;;;18.50;99.90;;;;;;10342434;28;20790;-88
2023/06/25 21:20:41;;;;;;;4.30;3.90;;;18.50;99.90;;;;;;10338970;28;20259;-88
2023/06/25 21:25:43;;;;;;;7.70;5.05;;;18.30;99.90;;;;;;10359106;28;20236;-90
2023/06/25 21:30:56;;;;;;;10.30;5.85;;;18.30;99.90;;;;;;10340823;28;20286;-90
2023/06/25 21:42:48;;;;;;;9.23;5.82;;;18.00;99.90;;;;;;10162429;29;20266;-88
2023/06/25 21:47:50;;;;;;;7.47;5.90;;;17.90;99.90;;;;;;10165482;29;20312;-89
2023/06/25 21:52:53;;;;;;;7.03;5.80;;;17.80;99.90;;;;;;10165398;29;20283;-87
2023/06/25 21:57:55;;;;;;;8.15;5.65;;;17.50;99.90;;;;;;10160238;29;20766;-90
2023/06/25 22:02:58;;;;;;;7.15;5.65;;;17.50;99.90;;;;;;10160989;29;20735;-89
2023/06/25 22:08:00;;;;;;;7.35;4.78;;;17.60;99.90;;;;;;10162409;29;20754;-90
2023/06/25 22:13:03;;;;;;;6.35;5.75;;;17.50;99.90;;;;;;10320187;28;20269;-89
2023/06/25 22:18:05;;;;;;;10.30;6.68;;;17.50;99.90;;;;;;10324941;28;20240;-90
2023/06/25 22:23:08;;;;;;;10.43;7.10;;;17.30;99.90;;;;;;10311134;28;20256;-90
2023/06/25 22:28:10;;;;;;;11.40;6.68;;;17.20;99.90;;;;;;10315888;28;20287;-89
2023/06/25 22:33:13;;;;;;;9.57;6.70;;;17.10;99.90;;;;;;10333837;28;20299;-89
2023/06/25 22:38:16;;;;;;;12.45;6.90;;;16.90;99.90;;;;;;10339141;28;20248;-89
2023/06/25 22:43:18;;;;;;;8.85;5.68;;;16.80;99.90;;;;;;10356391;28;20260;-89
2023/06/25 22:48:21;;;;;;;11.80;6.53;;;16.70;99.90;;;;;;10356538;28;20232;-89
2023/06/25 22:53:23;;;;;;;9.02;7.05;;;16.60;99.90;;;;;;10326902;28;20252;-90
2023/06/25 22:58:26;;;;;;;5.68;5.10;;;16.50;99.90;;;;;;10314764;28;20271;-90
2023/06/25 23:03:28;;;;;;;10.48;8.23;;;16.60;99.90;;;;;;10332812;28;20349;-90
2023/06/25 23:08:33;;;;;;;12.88;7.18;;;16.60;99.90;;;;;;10319849;28;20237;-89
2023/06/25 23:13:36;;;;;;;11.30;7.30;;;16.50;99.90;;;;;;10332437;28;21008;-89
2023/06/25 23:18:39;;;;;;;8.90;6.75;;;16.50;99.90;;;;;;10331883;28;20249;-89
2023/06/25 23:23:44;;;;;;;13.35;7.07;;;16.40;99.90;;;;;;10331622;28;20264;-90
2023/06/25 23:28:51;;;;;;;10.50;7.85;;;16.30;99.90;;;;;;10304608;28;20577;-90
2023/06/25 23:33:53;;;;;;;10.35;7.40;;;16.20;99.90;;;;;;10330595;28;20724;-89
2023/06/25 23:38:56;;;;;;;7.10;6.20;;;16.50;99.90;;;;;;10331418;28;20296;-90
2023/06/25 23:43:58;;;;;;;10.43;7.13;;;16.60;99.90;;;;;;10312560;28;20788;-90
2023/06/25 23:49:03;;;;;;;7.05;6.35;;;16.30;99.90;;;;;;10313128;28;20693;-90
2023/06/25 23:54:06;;;;;;;8.10;5.63;;;16.30;99.90;;;;;;10331191;28;20627;-89
2023/06/25 23:59:09;;;;;;;8.18;6.22;;;16.60;99.90;;;;;;10330119;28;20295;-90
